createdAt,value
2023-05-10T00:00:21.493Z,100.00
2023-05-10T00:02:49.442Z,100.00
2023-05-10T00:05:17.197Z,100.00
2023-05-10T00:07:45.869Z,100.00
2023-05-10T00:10:14.056Z,100.00
2023-05-10T00:12:41.887Z,100.00
2023-05-10T00:15:10.492Z,100.00
2023-05-10T00:17:38.100Z,100.00
2023-05-10T00:23:04.216Z,100.00
2023-05-10T00:25:31.912Z,100.00
2023-05-10T00:27:59.532Z,100.00
2023-05-10T00:30:27.048Z,100.00
2023-05-10T00:32:54.673Z,100.00
2023-05-10T00:35:22.706Z,100.00
2023-05-10T00:37:50.278Z,100.00
2023-05-10T00:40:18.066Z,100.00
2023-05-10T00:42:50.229Z,100.00
2023-05-10T00:45:17.858Z,100.00
2023-05-10T00:47:45.918Z,100.00
2023-05-10T00:50:14.582Z,100.00
2023-05-10T00:52:43.757Z,100.00
2023-05-10T00:55:13.275Z,100.00
2023-05-10T00:57:41.119Z,100.00
2023-05-10T01:00:09.587Z,100.00
2023-05-10T01:02:37.272Z,100.00
2023-05-10T01:05:06.183Z,100.00
2023-05-10T01:07:33.793Z,100.00
2023-05-10T01:10:01.461Z,100.00
2023-05-10T01:12:29.480Z,100.00
2023-05-10T01:14:58.265Z,100.00
2023-05-10T01:17:26.899Z,100.00
2023-05-10T01:19:54.932Z,100.00
2023-05-10T01:22:46.916Z,100.00
2023-05-10T01:25:54.946Z,100.00
2023-05-10T01:29:07.144Z,100.00
2023-05-10T01:32:12.073Z,100.00
2023-05-10T01:34:55.670Z,100.00
2023-05-10T01:37:37.126Z,100.00
2023-05-10T01:40:20.793Z,100.00
2023-05-10T01:43:00.834Z,100.00
2023-05-10T01:45:38.699Z,100.00
2023-05-10T01:48:15.865Z,100.00
2023-05-10T01:50:47.313Z,100.00
2023-05-10T01:53:21.269Z,100.00
2023-05-10T01:55:53.574Z,100.00
2023-05-10T01:58:33.644Z,100.00
2023-05-10T02:01:04.906Z,100.00
2023-05-10T02:03:37.409Z,100.00
2023-05-10T02:06:13.442Z,100.00
2023-05-10T02:08:42.603Z,100.00
2023-05-10T02:11:14.291Z,100.00
2023-05-10T02:13:44.509Z,100.00
2023-05-10T02:16:14.609Z,100.00
2023-05-10T02:18:42.764Z,100.00
2023-05-10T02:21:13.992Z,100.00
2023-05-10T02:23:43.578Z,100.00
2023-05-10T02:26:14.372Z,100.00
2023-05-10T02:28:44.094Z,100.00
2023-05-10T02:31:13.020Z,100.00
2023-05-10T02:33:41.955Z,100.00
2023-05-10T02:36:12.891Z,100.00
2023-05-10T02:38:42.127Z,100.00
2023-05-10T02:41:12.367Z,100.00
2023-05-10T02:43:42.892Z,100.00
2023-05-10T02:46:10.769Z,100.00
2023-05-10T02:48:39.273Z,100.00
2023-05-10T02:51:09.304Z,100.00
2023-05-10T02:53:44.169Z,100.00
2023-05-10T02:56:26.257Z,100.00
2023-05-10T02:58:53.735Z,100.00
2023-05-10T03:01:21.327Z,100.00
2023-05-10T03:03:48.992Z,100.00
2023-05-10T03:06:17.445Z,100.00
2023-05-10T03:08:46.238Z,100.00
2023-05-10T03:11:32.923Z,100.00
2023-05-10T03:14:38.048Z,100.00
2023-05-10T03:17:29.345Z,100.00
2023-05-10T03:20:05.497Z,100.00
2023-05-10T03:22:41.978Z,100.00
2023-05-10T03:25:12.673Z,100.00
2023-05-10T03:27:46.167Z,100.00
2023-05-10T03:30:15.729Z,100.00
2023-05-10T03:32:43.536Z,100.00
2023-05-10T03:35:14.084Z,100.00
2023-05-10T03:37:41.907Z,100.00
2023-05-10T03:40:11.190Z,100.00
2023-05-10T03:42:41.506Z,100.00
2023-05-10T03:45:10.706Z,100.00
2023-05-10T03:47:38.385Z,100.00
2023-05-10T03:50:07.278Z,100.00
2023-05-10T03:52:36.061Z,100.00
2023-05-10T03:55:04.674Z,100.00
2023-05-10T03:57:32.682Z,100.00
2023-05-10T04:00:01.353Z,100.00
2023-05-10T04:02:29.119Z,100.00
2023-05-10T04:04:57.475Z,100.00
2023-05-10T04:07:25.164Z,100.00
2023-05-10T04:09:53.252Z,100.00
2023-05-10T04:12:20.944Z,100.00
2023-05-10T04:14:48.569Z,100.00
2023-05-10T04:17:16.513Z,100.00
2023-05-10T04:19:44.090Z,100.00
2023-05-10T04:22:11.735Z,100.00
2023-05-10T04:24:39.259Z,100.00
2023-05-10T04:27:06.757Z,100.00
2023-05-10T04:29:34.316Z,100.00
2023-05-10T04:32:01.877Z,100.00
2023-05-10T04:34:29.630Z,100.00
2023-05-10T04:36:57.223Z,100.00
2023-05-10T04:39:24.775Z,100.00
2023-05-10T04:41:52.346Z,100.00
2023-05-10T04:44:19.835Z,100.00
2023-05-10T04:46:47.409Z,100.00
2023-05-10T04:49:15.426Z,100.00
2023-05-10T04:51:42.936Z,100.00
2023-05-10T04:54:11.264Z,100.00
2023-05-10T04:56:38.944Z,100.00
2023-05-10T04:59:06.499Z,100.00
2023-05-10T05:01:34.300Z,100.00
2023-05-10T05:04:02.438Z,100.00
2023-05-10T05:06:30.359Z,100.00
2023-05-10T05:08:57.977Z,100.00
2023-05-10T05:11:31.701Z,100.00
2023-05-10T05:14:00.244Z,100.00
2023-05-10T05:16:28.046Z,100.00
2023-05-10T05:18:55.689Z,100.00
2023-05-10T05:21:23.268Z,100.00
2023-05-10T05:23:51.201Z,100.00
2023-05-10T05:26:18.793Z,100.00
2023-05-10T05:28:46.340Z,100.00
2023-05-10T05:31:14.843Z,100.00
2023-05-10T05:33:42.486Z,100.00
2023-05-10T05:36:10.460Z,100.00
2023-05-10T05:38:38.256Z,100.00
2023-05-10T05:41:05.829Z,100.00
2023-05-10T05:43:34.110Z,100.00
2023-05-10T05:46:03.121Z,100.00
2023-05-10T05:48:31.742Z,100.00
2023-05-10T05:50:59.324Z,100.00
2023-05-10T05:53:27.110Z,100.00
2023-05-10T05:55:56.723Z,100.00
2023-05-10T05:58:25.413Z,100.00
2023-05-10T06:00:53.660Z,100.00
2023-05-10T06:03:26.234Z,100.00
2023-05-10T06:05:53.868Z,100.00
2023-05-10T06:08:21.582Z,100.00
2023-05-10T06:10:49.305Z,100.00
2023-05-10T06:13:16.920Z,100.00
2023-05-10T06:15:51.999Z,100.00
2023-05-10T06:18:19.543Z,100.00
2023-05-10T06:20:47.245Z,100.00
2023-05-10T06:23:14.808Z,100.00
2023-05-10T06:25:42.684Z,100.00
2023-05-10T06:28:10.402Z,100.00
2023-05-10T06:30:38.086Z,100.00
2023-05-10T06:33:05.857Z,100.00
2023-05-10T06:35:34.513Z,100.00
2023-05-10T06:38:02.087Z,100.00
2023-05-10T06:40:29.714Z,100.00
2023-05-10T06:43:05.701Z,100.00
2023-05-10T06:45:33.361Z,100.00
2023-05-10T06:48:01.026Z,100.00
2023-05-10T06:50:28.601Z,100.00
2023-05-10T06:52:56.729Z,100.00
2023-05-10T06:55:31.117Z,100.00
2023-05-10T06:57:58.881Z,100.00
2023-05-10T07:00:26.920Z,100.00
2023-05-10T07:02:54.636Z,100.00
2023-05-10T07:05:22.986Z,100.00
2023-05-10T07:07:50.816Z,100.00
2023-05-10T07:10:18.692Z,100.00
2023-05-10T07:12:46.303Z,100.00
2023-05-10T07:15:14.022Z,100.00
2023-05-10T07:17:43.234Z,100.00
2023-05-10T07:20:13.237Z,100.00
2023-05-10T07:22:40.782Z,100.00
2023-05-10T07:25:08.769Z,100.00
2023-05-10T07:27:36.278Z,100.00
2023-05-10T07:30:04.244Z,100.00
2023-05-10T07:32:32.546Z,100.00
2023-05-10T07:35:00.397Z,100.00
2023-05-10T07:37:27.953Z,100.00
2023-05-10T07:39:55.552Z,100.00
2023-05-10T07:42:23.065Z,100.00
2023-05-10T07:44:50.613Z,100.00
2023-05-10T07:47:18.141Z,100.00
2023-05-10T07:49:45.764Z,100.00
2023-05-10T07:52:13.304Z,100.00
2023-05-10T07:54:40.802Z,100.00
2023-05-10T07:57:08.310Z,100.00
2023-05-10T07:59:35.864Z,100.00
2023-05-10T08:02:03.488Z,100.00
2023-05-10T08:04:31.184Z,100.00
2023-05-10T08:07:00.926Z,100.00
2023-05-10T08:09:34.733Z,100.00
2023-05-10T08:12:12.756Z,100.00
2023-05-10T08:14:50.558Z,100.00
2023-05-10T08:17:24.704Z,100.00
2023-05-10T08:19:52.456Z,100.00
2023-05-10T08:22:20.010Z,100.00
2023-05-10T08:24:50.905Z,100.00
2023-05-10T08:27:18.569Z,100.00
2023-05-10T08:29:50.177Z,100.00
2023-05-10T08:32:18.811Z,100.00
2023-05-10T08:34:51.566Z,100.00
2023-05-10T08:37:46.364Z,100.00
2023-05-10T08:40:16.445Z,100.00
2023-05-10T08:42:56.464Z,100.00
2023-05-10T08:45:26.036Z,100.00
2023-05-10T08:47:54.302Z,100.00
2023-05-10T08:50:22.967Z,100.00
2023-05-10T08:52:58.379Z,100.00
2023-05-10T08:55:26.068Z,100.00
2023-05-10T08:57:54.717Z,100.00
2023-05-10T09:00:24.098Z,100.00
2023-05-10T09:02:53.629Z,100.00
2023-05-10T09:05:21.398Z,100.00
2023-05-10T09:07:48.970Z,100.00
2023-05-10T09:10:19.275Z,100.00
2023-05-10T09:12:49.276Z,100.00
2023-05-10T09:15:20.166Z,100.00
2023-05-10T09:17:50.866Z,100.00
2023-05-10T09:20:18.754Z,100.00
2023-05-10T09:22:46.348Z,100.00
2023-05-10T09:25:18.391Z,100.00
2023-05-10T09:27:48.752Z,100.00
2023-05-10T09:30:29.863Z,100.00
2023-05-10T09:32:59.463Z,100.00
2023-05-10T09:35:33.136Z,100.00
2023-05-10T09:38:04.922Z,100.00
2023-05-10T09:40:33.451Z,100.00
2023-05-10T09:43:11.784Z,100.00
2023-05-10T09:45:39.462Z,100.00
2023-05-10T09:48:07.520Z,100.00
2023-05-10T09:50:35.508Z,100.00
2023-05-10T09:53:04.843Z,100.00
2023-05-10T09:55:47.059Z,100.00
2023-05-10T09:58:15.484Z,100.00
2023-05-10T10:00:46.374Z,100.00
2023-05-10T10:03:21.261Z,100.00
2023-05-10T10:05:49.732Z,100.00
2023-05-10T10:08:19.002Z,100.00
2023-05-10T10:10:47.953Z,100.00
2023-05-10T10:13:16.536Z,100.00
2023-05-10T10:15:45.648Z,100.00
2023-05-10T10:18:16.630Z,100.00
2023-05-10T10:20:44.767Z,100.00
2023-05-10T10:23:12.400Z,100.00
2023-05-10T10:25:40.752Z,100.00
2023-05-10T10:28:53.233Z,100.00
2023-05-10T10:31:42.906Z,100.00
2023-05-10T10:34:24.934Z,100.00
2023-05-10T10:36:52.676Z,100.00
2023-05-10T10:39:22.097Z,100.00
2023-05-10T10:41:59.033Z,100.00
2023-05-10T10:44:34.651Z,100.00
2023-05-10T10:47:31.986Z,100.00
2023-05-10T10:50:02.723Z,100.00
2023-05-10T10:52:44.270Z,100.00
2023-05-10T10:55:17.867Z,100.00
2023-05-10T10:57:51.920Z,100.00
2023-05-10T11:00:41.810Z,100.00
2023-05-10T11:03:15.774Z,100.00
2023-05-10T11:05:45.603Z,100.00
2023-05-10T11:08:26.693Z,100.00
2023-05-10T11:11:01.797Z,100.00
2023-05-10T11:13:41.568Z,100.00
2023-05-10T11:16:27.969Z,100.00
2023-05-10T11:19:10.471Z,100.00
2023-05-10T11:21:50.045Z,100.00
2023-05-10T11:24:21.665Z,100.00
2023-05-10T11:26:52.754Z,100.00
2023-05-10T11:29:21.063Z,100.00
2023-05-10T11:31:50.578Z,100.00
2023-05-10T11:34:26.171Z,100.00
2023-05-10T11:36:55.875Z,100.00
2023-05-10T11:44:11.385Z,100.00
2023-05-10T11:46:57.457Z,100.00
2023-05-10T11:49:48.178Z,100.00
2023-05-10T11:52:22.809Z,100.00
2023-05-10T11:55:04.595Z,100.00
2023-05-10T11:57:41.510Z,100.00
2023-05-10T12:00:22.775Z,100.00
2023-05-10T12:02:53.607Z,100.00
2023-05-10T12:05:25.403Z,100.00
2023-05-10T12:08:15.866Z,100.00
2023-05-10T12:10:46.229Z,100.00
2023-05-10T12:13:23.670Z,100.00
2023-05-10T12:15:51.519Z,100.00
2023-05-10T12:18:27.183Z,100.00
2023-05-10T12:21:11.381Z,100.00
2023-05-10T12:23:46.142Z,100.00
2023-05-10T12:26:32.849Z,100.00
2023-05-10T12:29:19.081Z,100.00
2023-05-10T12:31:59.235Z,100.00
2023-05-10T12:34:39.556Z,100.00
2023-05-10T12:37:08.292Z,100.00
2023-05-10T12:39:44.575Z,100.00
2023-05-10T12:42:16.670Z,100.00
2023-05-10T12:45:06.501Z,100.00
2023-05-10T12:47:35.532Z,100.00
2023-05-10T12:50:10.683Z,100.00
2023-05-10T12:52:54.809Z,100.00
2023-05-10T12:55:25.177Z,100.00
2023-05-10T12:58:31.458Z,100.00
2023-05-10T13:01:36.063Z,100.00
2023-05-10T13:04:12.327Z,100.00
2023-05-10T13:06:40.130Z,100.00
2023-05-10T13:09:08.002Z,100.00
2023-05-10T13:11:35.720Z,100.00
2023-05-10T13:14:04.332Z,100.00
2023-05-10T13:16:32.858Z,100.00
2023-05-10T13:19:00.565Z,100.00
2023-05-10T13:21:28.834Z,100.00
2023-05-10T13:23:56.558Z,100.00
2023-05-10T13:26:24.142Z,100.00
2023-05-10T13:28:52.745Z,100.00
2023-05-10T13:31:20.397Z,100.00
2023-05-10T13:33:47.950Z,100.00
2023-05-10T13:36:15.576Z,100.00
2023-05-10T13:38:43.240Z,100.00
2023-05-10T13:41:11.512Z,100.00
2023-05-10T13:43:39.011Z,100.00
2023-05-10T13:46:06.647Z,100.00
2023-05-10T13:48:35.261Z,100.00
2023-05-10T13:51:04.721Z,100.00
2023-05-10T13:53:32.273Z,100.00
2023-05-10T13:55:59.756Z,100.00
2023-05-10T13:58:30.632Z,100.00
2023-05-10T14:00:58.873Z,100.00
2023-05-10T14:03:26.515Z,100.00
2023-05-10T14:05:54.129Z,100.00
2023-05-10T14:08:21.728Z,100.00
2023-05-10T14:10:49.870Z,100.00
2023-05-10T14:13:17.432Z,100.00
2023-05-10T14:15:45.156Z,100.00
2023-05-10T14:18:12.767Z,100.00
2023-05-10T14:20:40.892Z,100.00
2023-05-10T14:23:10.505Z,100.00
2023-05-10T14:25:41.587Z,100.00
2023-05-10T14:28:09.296Z,99.37
2023-05-10T14:30:37.438Z,97.67
2023-05-10T14:33:05.121Z,96.22
2023-05-10T14:35:32.850Z,95.79
2023-05-10T14:38:00.511Z,93.61
2023-05-10T14:40:28.037Z,92.18
2023-05-10T14:42:55.715Z,92.22
2023-05-10T14:45:23.949Z,92.59
2023-05-10T14:47:51.632Z,93.11
2023-05-10T14:50:35.269Z,93.20
2023-05-10T14:53:04.302Z,93.03
2023-05-10T14:55:31.899Z,93.13
2023-05-10T14:57:59.819Z,92.97
2023-05-10T15:00:30.231Z,93.06
2023-05-10T15:02:58.506Z,93.28
2023-05-10T15:05:26.539Z,93.34
2023-05-10T15:07:54.532Z,93.08
2023-05-10T15:10:22.528Z,91.95
2023-05-10T15:12:51.408Z,91.90
2023-05-10T15:15:19.066Z,92.33
2023-05-10T15:17:46.976Z,92.59
2023-05-10T15:20:14.593Z,93.42
2023-05-10T15:22:42.173Z,93.45
2023-05-10T15:25:10.670Z,93.67
2023-05-10T15:27:38.320Z,93.05
2023-05-10T15:30:07.347Z,93.70
2023-05-10T15:32:34.845Z,94.30
2023-05-10T15:35:02.760Z,94.62
2023-05-10T15:37:30.482Z,94.00
2023-05-10T15:40:04.306Z,94.06
2023-05-10T15:42:37.283Z,94.23
2023-05-10T15:45:06.028Z,94.18
2023-05-10T15:47:33.960Z,94.54
2023-05-10T15:50:01.597Z,95.49
2023-05-10T15:52:29.311Z,95.55
2023-05-10T15:54:57.882Z,95.74
2023-05-10T15:57:25.552Z,96.29
2023-05-10T15:59:53.611Z,96.54
2023-05-10T16:02:22.489Z,96.40
2023-05-10T16:04:50.336Z,97.06
2023-05-10T16:07:18.036Z,97.52
2023-05-10T16:09:45.817Z,97.74
2023-05-10T16:12:13.445Z,98.25
2023-05-10T16:14:41.155Z,98.62
2023-05-10T16:17:08.736Z,99.37
2023-05-10T16:19:36.288Z,99.53
2023-05-10T16:22:03.969Z,99.48
2023-05-10T16:24:31.570Z,99.52
2023-05-10T16:26:59.319Z,100.00
2023-05-10T16:29:26.985Z,99.98
2023-05-10T16:31:55.031Z,100.00
2023-05-10T16:34:24.387Z,100.00
2023-05-10T16:36:54.042Z,100.00
2023-05-10T16:39:21.581Z,100.00
2023-05-10T16:41:51.271Z,100.00
2023-05-10T16:44:20.415Z,100.00
2023-05-10T16:46:48.879Z,100.00
2023-05-10T16:49:16.843Z,100.00
2023-05-10T16:51:44.410Z,100.00
2023-05-10T16:54:12.003Z,100.00
2023-05-10T16:56:39.577Z,100.00
2023-05-10T16:59:07.175Z,100.00
2023-05-10T17:01:34.849Z,100.00
2023-05-10T17:04:03.220Z,100.00
2023-05-10T17:06:31.209Z,100.00
2023-05-10T17:08:58.783Z,100.00
2023-05-10T17:11:26.324Z,100.00
2023-05-10T17:13:53.930Z,99.68
2023-05-10T17:16:21.670Z,100.00
2023-05-10T17:18:49.421Z,99.92
2023-05-10T17:21:17.106Z,99.85
2023-05-10T17:23:44.649Z,99.26
2023-05-10T17:26:12.450Z,98.81
2023-05-10T17:28:39.980Z,98.85
2023-05-10T17:31:07.791Z,98.89
2023-05-10T17:33:35.323Z,99.32
2023-05-10T17:36:02.866Z,99.40
2023-05-10T17:38:30.500Z,99.03
2023-05-10T17:40:58.106Z,98.88
2023-05-10T17:43:26.116Z,98.83
2023-05-10T17:45:53.747Z,98.69
2023-05-10T17:48:22.042Z,99.11
2023-05-10T17:50:51.102Z,99.35
2023-05-10T17:53:19.427Z,99.60
2023-05-10T17:55:47.138Z,99.52
2023-05-10T17:58:14.784Z,99.85
2023-05-10T18:00:42.556Z,99.99
2023-05-10T18:03:11.541Z,100.00
2023-05-10T18:05:39.521Z,100.00
2023-05-10T18:08:07.574Z,100.00
2023-05-10T18:10:39.334Z,100.00
2023-05-10T18:13:08.932Z,100.00
2023-05-10T18:15:37.117Z,100.00
2023-05-10T18:18:07.804Z,100.00
2023-05-10T18:20:43.487Z,100.00
2023-05-10T18:23:11.220Z,100.00
2023-05-10T18:25:39.068Z,100.00
2023-05-10T18:28:08.135Z,100.00
2023-05-10T18:30:35.690Z,100.00
2023-05-10T18:33:03.513Z,100.00
2023-05-10T18:35:31.211Z,100.00
2023-05-10T18:37:59.163Z,100.00
2023-05-10T18:40:27.608Z,100.00
2023-05-10T18:42:55.323Z,100.00
2023-05-10T18:45:22.915Z,100.00
2023-05-10T18:47:50.471Z,100.00
2023-05-10T18:50:19.698Z,100.00
2023-05-10T18:52:47.459Z,100.00
2023-05-10T18:55:15.259Z,100.00
2023-05-10T18:57:43.035Z,100.00
2023-05-10T19:00:12.606Z,100.00
2023-05-10T19:02:40.595Z,100.00
2023-05-10T19:05:09.403Z,100.00
2023-05-10T19:07:37.138Z,100.00
2023-05-10T19:10:05.286Z,100.00
2023-05-10T19:12:32.994Z,100.00
2023-05-10T19:15:00.787Z,100.00
2023-05-10T19:17:28.696Z,100.00
2023-05-10T19:19:56.691Z,100.00
2023-05-10T19:22:36.153Z,100.00
2023-05-10T19:25:13.034Z,100.00
2023-05-10T19:27:40.802Z,100.00
2023-05-10T19:30:09.154Z,100.00
2023-05-10T19:32:36.852Z,100.00
2023-05-10T19:35:05.133Z,100.00
2023-05-10T19:37:32.781Z,100.00
2023-05-10T19:40:00.377Z,100.00
2023-05-10T19:42:27.997Z,100.00
2023-05-10T19:44:55.605Z,100.00
2023-05-10T19:47:23.223Z,100.00
2023-05-10T19:49:50.969Z,100.00
2023-05-10T19:52:18.814Z,100.00
2023-05-10T19:54:46.401Z,100.00
2023-05-10T19:57:14.189Z,100.00
2023-05-10T19:59:41.705Z,100.00
2023-05-10T20:02:09.319Z,100.00
2023-05-10T20:04:36.850Z,100.00
2023-05-10T20:07:04.363Z,100.00
2023-05-10T20:09:31.915Z,100.00
2023-05-10T20:11:59.645Z,100.00
2023-05-10T20:14:27.235Z,100.00
2023-05-10T20:16:54.923Z,100.00
2023-05-10T20:19:27.349Z,100.00
2023-05-10T20:21:56.168Z,100.00
2023-05-10T20:24:24.003Z,100.00
2023-05-10T20:26:51.959Z,100.00
2023-05-10T20:29:19.902Z,100.00
2023-05-10T20:31:47.542Z,100.00
2023-05-10T20:34:15.323Z,100.00
2023-05-10T20:36:42.844Z,100.00
2023-05-10T20:39:10.724Z,100.00
2023-05-10T20:41:39.230Z,100.00
2023-05-10T20:44:06.938Z,100.00
2023-05-10T20:46:34.718Z,100.00
2023-05-10T20:49:02.558Z,100.00
2023-05-10T20:51:30.518Z,100.00
2023-05-10T20:53:58.134Z,100.00
2023-05-10T20:56:26.829Z,100.00
2023-05-10T20:58:54.385Z,100.00
2023-05-10T21:01:22.107Z,100.00
2023-05-10T21:03:49.722Z,100.00
2023-05-10T21:06:17.284Z,100.00
2023-05-10T21:08:44.888Z,100.00
2023-05-10T21:11:12.538Z,100.00
2023-05-10T21:13:40.115Z,100.00
2023-05-10T21:16:07.773Z,100.00
2023-05-10T21:18:36.019Z,100.00
2023-05-10T21:21:03.852Z,100.00
2023-05-10T21:23:33.775Z,100.00
2023-05-10T21:26:05.824Z,100.00
2023-05-10T21:28:33.509Z,100.00
2023-05-10T21:31:01.618Z,100.00
2023-05-10T21:33:29.225Z,100.00
2023-05-10T21:35:57.100Z,100.00
2023-05-10T21:38:24.761Z,100.00
2023-05-10T21:40:52.375Z,100.00
2023-05-10T21:43:20.237Z,100.00
2023-05-10T21:45:47.821Z,100.00
2023-05-10T21:48:15.421Z,100.00
2023-05-10T21:50:43.809Z,100.00
2023-05-10T21:53:11.807Z,100.00
2023-05-10T21:55:39.546Z,100.00
2023-05-10T21:58:07.166Z,100.00
2023-05-10T22:00:35.554Z,100.00
2023-05-10T22:03:03.242Z,100.00
2023-05-10T22:05:30.861Z,100.00
2023-05-10T22:07:58.505Z,100.00
2023-05-10T22:10:26.087Z,100.00
2023-05-10T22:12:53.713Z,100.00
2023-05-10T22:15:21.390Z,100.00
2023-05-10T22:17:48.946Z,100.00
2023-05-10T22:20:16.996Z,100.00
2023-05-10T22:22:45.340Z,100.00
2023-05-10T22:25:12.871Z,100.00
2023-05-10T22:27:40.778Z,100.00
2023-05-10T22:30:09.309Z,100.00
2023-05-10T22:32:36.979Z,100.00
2023-05-10T22:35:04.935Z,100.00
2023-05-10T22:37:32.655Z,100.00
2023-05-10T22:40:00.231Z,100.00
2023-05-10T22:42:27.821Z,100.00
2023-05-10T22:44:55.778Z,100.00
2023-05-10T22:47:23.383Z,100.00
2023-05-10T22:49:50.960Z,100.00
2023-05-10T22:52:18.465Z,100.00
2023-05-10T22:54:46.420Z,100.00
2023-05-10T22:57:14.455Z,100.00
2023-05-10T22:59:42.808Z,100.00
2023-05-10T23:02:10.585Z,100.00
2023-05-10T23:04:38.209Z,100.00
2023-05-10T23:07:06.022Z,100.00
2023-05-10T23:09:33.743Z,100.00
2023-05-10T23:12:01.302Z,100.00
2023-05-10T23:14:29.144Z,100.00
2023-05-10T23:16:56.931Z,100.00
2023-05-10T23:19:24.622Z,100.00
2023-05-10T23:21:52.191Z,100.00
2023-05-10T23:24:19.687Z,100.00
2023-05-10T23:26:47.359Z,100.00
2023-05-10T23:29:14.952Z,100.00
2023-05-10T23:31:45.612Z,100.00
2023-05-10T23:34:13.275Z,100.00
2023-05-10T23:36:40.920Z,100.00
2023-05-10T23:39:08.449Z,100.00
2023-05-10T23:41:36.033Z,100.00
2023-05-10T23:44:03.811Z,100.00
2023-05-10T23:46:31.430Z,100.00
2023-05-10T23:48:58.978Z,100.00
2023-05-10T23:51:27.310Z,100.00
2023-05-10T23:53:54.872Z,100.00
2023-05-10T23:56:22.492Z,100.00
2023-05-10T23:58:50.053Z,100.00
